Time;durP1;ratioP1;P1;durP2;ratioP2;P2;SDS_P1;SDS_P2;PMS_P1;PMS_P2;Temp;Humidity;BMP_temperature;BMP_pressure;BME280_temperature;BME280_humidity;BME280_pressure;Samples;Min_cycle;Max_cycle;Signal;HPM_P1;HPM_P2
2023/12/29 00:00:09;;;;;;;1.30;1.00;;;;;;;;;;5022943;28;20057;-86
2023/12/29 00:02:37;;;;;;;1.60;0.90;;;;;;;;;;5028317;28;20511;-86
2023/12/29 00:05:06;;;;;;;1.27;1.00;;;;;;;;;;5027790;28;20136;-86
2023/12/29 00:07:35;;;;;;;1.02;0.90;;;;;;;;;;5028347;28;20517;-86
2023/12/29 00:10:03;;;;;;;2.17;1.05;;;;;;;;;;5026163;28;20048;-86
2023/12/29 00:12:32;;;;;;;1.65;1.00;;;;;;;;;;5024673;28;20073;-86
2023/12/29 00:15:02;;;;;;;1.60;0.90;;;;;;;;;;5024767;28;20093;-85
2023/12/29 00:17:32;;;;;;;0.73;0.70;;;;;;;;;;5024834;28;20061;-85
2023/12/29 00:20:00;;;;;;;2.20;0.88;;;;;;;;;;5019503;28;20518;-86
2023/12/29 00:22:29;;;;;;;0.80;0.80;;;;;;;;;;5018585;28;20451;-85
2023/12/29 00:24:57;;;;;;;1.17;0.90;;;;;;;;;;5021863;28;20058;-85
2023/12/29 00:27:26;;;;;;;0.70;0.70;;;;;;;;;;5022436;28;20127;-85
2023/12/29 00:29:54;;;;;;;0.70;0.70;;;;;;;;;;5021823;28;20048;-86
2023/12/29 00:32:24;;;;;;;0.80;0.80;;;;;;;;;;5018893;28;20038;-85
2023/12/29 00:34:52;;;;;;;0.70;0.70;;;;;;;;;;5022031;28;20049;-85
2023/12/29 00:37:21;;;;;;;0.85;0.77;;;;;;;;;;5024049;28;20052;-86
2023/12/29 00:39:50;;;;;;;0.77;0.77;;;;;;;;;;5021295;28;20413;-86
2023/12/29 00:42:18;;;;;;;1.05;0.80;;;;;;;;;;5019423;28;20069;-86
2023/12/29 00:44:47;;;;;;;0.70;0.70;;;;;;;;;;5019884;28;20111;-86
2023/12/29 00:47:15;;;;;;;0.82;0.70;;;;;;;;;;5024531;28;20057;-86
2023/12/29 00:49:45;;;;;;;1.10;0.85;;;;;;;;;;5026044;28;20470;-86
2023/12/29 00:52:14;;;;;;;0.70;0.70;;;;;;;;;;5025591;28;20057;-86
2023/12/29 00:54:42;;;;;;;0.73;0.73;;;;;;;;;;5021910;28;20502;-86
2023/12/29 00:57:11;;;;;;;0.88;0.70;;;;;;;;;;5022401;28;20049;-85
2023/12/29 00:59:39;;;;;;;0.73;0.65;;;;;;;;;;5019260;28;20049;-85
2023/12/29 01:02:08;;;;;;;0.93;0.85;;;;;;;;;;5021011;28;20062;-85
2023/12/29 01:04:39;;;;;;;1.05;0.80;;;;;;;;;;5021085;28;20061;-86
2023/12/29 01:07:09;;;;;;;1.02;0.82;;;;;;;;;;5020094;28;20418;-85
2023/12/29 01:09:39;;;;;;;0.70;0.70;;;;;;;;;;5022146;28;20049;-86
2023/12/29 01:12:08;;;;;;;1.20;0.80;;;;;;;;;;5023893;28;20108;-85
2023/12/29 01:14:37;;;;;;;0.93;0.82;;;;;;;;;;5023930;28;20108;-85
2023/12/29 01:17:05;;;;;;;1.63;0.90;;;;;;;;;;5023001;28;20111;-86
2023/12/29 01:19:34;;;;;;;1.52;1.10;;;;;;;;;;5019948;28;20550;-86
2023/12/29 01:22:03;;;;;;;1.85;1.10;;;;;;;;;;5016978;28;20057;-85
2023/12/29 01:24:33;;;;;;;1.05;0.90;;;;;;;;;;5022033;28;20159;-86
2023/12/29 01:27:13;;;;;;;1.17;0.98;;;;;;;;;;5018296;28;20045;-85
2023/12/29 01:29:41;;;;;;;0.85;0.85;;;;;;;;;;5021425;28;20408;-86
2023/12/29 01:32:10;;;;;;;1.10;1.00;;;;;;;;;;5020064;28;20545;-86
2023/12/29 01:34:39;;;;;;;1.33;0.90;;;;;;;;;;5016823;28;20493;-86
2023/12/29 01:37:07;;;;;;;1.38;0.90;;;;;;;;;;5017249;28;20100;-85
2023/12/29 01:39:37;;;;;;;1.50;1.00;;;;;;;;;;5017343;28;20053;-85
2023/12/29 01:42:06;;;;;;;1.20;1.10;;;;;;;;;;5016885;28;20053;-85
2023/12/29 01:44:35;;;;;;;1.42;1.05;;;;;;;;;;5020666;28;20140;-85
2023/12/29 01:47:05;;;;;;;1.15;0.90;;;;;;;;;;5018418;28;20096;-85
2023/12/29 01:49:34;;;;;;;1.80;1.10;;;;;;;;;;5022289;28;20115;-85
2023/12/29 01:52:02;;;;;;;1.33;1.00;;;;;;;;;;5023201;28;20045;-85
2023/12/29 01:54:32;;;;;;;1.95;1.02;;;;;;;;;;5021256;28;20052;-86
2023/12/29 01:57:03;;;;;;;1.50;0.93;;;;;;;;;;5016034;28;20061;-86
2023/12/29 01:59:33;;;;;;;1.00;0.80;;;;;;;;;;5019796;28;20045;-86
2023/12/29 02:02:01;;;;;;;1.35;1.00;;;;;;;;;;5016788;28;20061;-86
2023/12/29 02:04:32;;;;;;;1.30;1.20;;;;;;;;;;5016910;28;20132;-86
2023/12/29 02:07:01;;;;;;;1.33;0.95;;;;;;;;;;5018663;28;20037;-86
2023/12/29 02:09:29;;;;;;;1.58;0.93;;;;;;;;;;5020008;28;20045;-86
2023/12/29 02:11:58;;;;;;;1.05;0.95;;;;;;;;;;5016058;28;20060;-86
2023/12/29 02:14:28;;;;;;;1.95;1.15;;;;;;;;;;5016229;28;20042;-85
2023/12/29 02:17:00;;;;;;;1.20;0.90;;;;;;;;;;5016670;28;20049;-86
2023/12/29 02:19:41;;;;;;;1.02;0.88;;;;;;;;;;5017243;28;20100;-86
2023/12/29 02:22:11;;;;;;;1.27;1.10;;;;;;;;;;5018121;28;20070;-86
2023/12/29 02:24:40;;;;;;;1.08;0.98;;;;;;;;;;5016713;28;20073;-85
2023/12/29 02:27:14;;;;;;;1.30;0.82;;;;;;;;;;5016188;28;20045;-85
2023/12/29 02:29:45;;;;;;;3.30;1.30;;;;;;;;;;5019726;28;20046;-86
2023/12/29 02:32:17;;;;;;;1.27;1.10;;;;;;;;;;5020917;28;20135;-85
2023/12/29 02:34:46;;;;;;;2.78;1.10;;;;;;;;;;5021461;28;20054;-86
2023/12/29 02:37:16;;;;;;;1.00;0.90;;;;;;;;;;5022773;28;20158;-86
2023/12/29 02:39:44;;;;;;;1.92;1.10;;;;;;;;;;5020629;28;20046;-86
2023/12/29 02:42:14;;;;;;;1.80;1.17;;;;;;;;;;5015625;28;20061;-86
2023/12/29 02:44:42;;;;;;;1.02;0.93;;;;;;;;;;5016599;28;20061;-86
2023/12/29 02:47:11;;;;;;;1.42;1.20;;;;;;;;;;5015342;28;20104;-85
2023/12/29 02:49:39;;;;;;;1.38;1.02;;;;;;;;;;5019977;28;20049;-85
2023/12/29 02:52:08;;;;;;;1.13;0.90;;;;;;;;;;5019579;28;20072;-86
2023/12/29 02:54:37;;;;;;;1.58;1.00;;;;;;;;;;5019120;28;20037;-86
2023/12/29 02:57:05;;;;;;;1.42;0.98;;;;;;;;;;5019321;28;20058;-85
2023/12/29 02:59:37;;;;;;;1.30;1.02;;;;;;;;;;5017931;28;20517;-85
2023/12/29 03:02:05;;;;;;;1.15;1.00;;;;;;;;;;5015748;28;20136;-85
2023/12/29 03:04:34;;;;;;;1.30;0.95;;;;;;;;;;5016800;28;20498;-85
2023/12/29 03:07:02;;;;;;;1.50;1.00;;;;;;;;;;5018299;28;20498;-85
2023/12/29 03:09:30;;;;;;;1.23;1.00;;;;;;;;;;5019720;28;20048;-85
2023/12/29 03:11:59;;;;;;;1.20;1.02;;;;;;;;;;5019828;28;20050;-86
2023/12/29 03:14:27;;;;;;;3.38;1.20;;;;;;;;;;5017848;28;20099;-86
2023/12/29 03:16:58;;;;;;;1.73;1.33;;;;;;;;;;5022196;28;20057;-85
2023/12/29 03:19:27;;;;;;;1.05;0.90;;;;;;;;;;5021849;28;20483;-86
2023/12/29 03:21:55;;;;;;;1.67;1.10;;;;;;;;;;5021998;28;20050;-87
2023/12/29 03:24:24;;;;;;;2.13;1.35;;;;;;;;;;5017667;28;20053;-85
2023/12/29 03:26:52;;;;;;;1.75;1.13;;;;;;;;;;5015225;28;20119;-85
2023/12/29 03:29:21;;;;;;;1.95;1.00;;;;;;;;;;5015362;28;20053;-85
2023/12/29 03:31:49;;;;;;;1.67;1.15;;;;;;;;;;5018372;28;20045;-86
2023/12/29 03:34:19;;;;;;;1.10;1.00;;;;;;;;;;5021163;28;20502;-85
2023/12/29 03:36:48;;;;;;;1.10;1.00;;;;;;;;;;5021001;28;20414;-85
2023/12/29 03:39:17;;;;;;;1.30;1.00;;;;;;;;;;5021797;28;20132;-85
2023/12/29 03:41:45;;;;;;;1.73;1.02;;;;;;;;;;5022127;28;20053;-86
2023/12/29 03:44:13;;;;;;;3.40;1.25;;;;;;;;;;5016790;28;20119;-85
2023/12/29 03:46:42;;;;;;;1.63;1.10;;;;;;;;;;5023307;28;20119;-85
2023/12/29 03:49:10;;;;;;;1.30;1.20;;;;;;;;;;5020352;28;20112;-85
2023/12/29 03:51:40;;;;;;;1.63;1.10;;;;;;;;;;5019041;28;20096;-85
2023/12/29 03:54:08;;;;;;;1.00;0.90;;;;;;;;;;5020185;28;20041;-85
2023/12/29 03:56:37;;;;;;;1.38;1.02;;;;;;;;;;5017294;28;20049;-85
2023/12/29 03:59:05;;;;;;;2.42;1.10;;;;;;;;;;5019989;28;20049;-86
2023/12/29 04:01:35;;;;;;;1.00;0.90;;;;;;;;;;5017934;28;20140;-86
2023/12/29 04:04:04;;;;;;;1.13;1.00;;;;;;;;;;5023139;28;20045;-87
2023/12/29 04:06:32;;;;;;;1.60;1.17;;;;;;;;;;5019374;28;20077;-85
2023/12/29 04:09:02;;;;;;;1.25;0.98;;;;;;;;;;5024495;28;20054;-86
2023/12/29 04:11:30;;;;;;;1.50;1.10;;;;;;;;;;5024951;28;20054;-85
2023/12/29 04:13:59;;;;;;;1.30;1.00;;;;;;;;;;5022458;28;20108;-85
2023/12/29 04:16:27;;;;;;;1.20;1.00;;;;;;;;;;5022915;28;20073;-85
2023/12/29 04:18:55;;;;;;;1.17;1.00;;;;;;;;;;5019218;28;20058;-86
2023/12/29 04:21:24;;;;;;;1.10;1.00;;;;;;;;;;5022526;28;20065;-85
2023/12/29 04:23:52;;;;;;;1.98;1.08;;;;;;;;;;5024506;28;20053;-86
2023/12/29 04:26:22;;;;;;;1.05;0.95;;;;;;;;;;5023630;28;20608;-85
2023/12/29 04:28:50;;;;;;;1.73;1.23;;;;;;;;;;5020714;28;20483;-85
2023/12/29 04:31:18;;;;;;;1.40;1.10;;;;;;;;;;5019891;28;20045;-85
2023/12/29 04:33:47;;;;;;;2.55;1.10;;;;;;;;;;5022223;28;20059;-85
2023/12/29 04:36:15;;;;;;;0.85;0.85;;;;;;;;;;5017636;28;20599;-85
2023/12/29 04:38:44;;;;;;;2.17;1.27;;;;;;;;;;5020940;28;20057;-85
2023/12/29 04:41:13;;;;;;;1.52;1.15;;;;;;;;;;5024690;28;20473;-85
2023/12/29 04:43:43;;;;;;;1.30;0.98;;;;;;;;;;5017337;28;20046;-86
2023/12/29 04:46:11;;;;;;;1.75;1.20;;;;;;;;;;5016905;28;20054;-85
2023/12/29 04:48:40;;;;;;;1.38;1.00;;;;;;;;;;5019873;28;20136;-86
2023/12/29 04:51:08;;;;;;;1.65;0.98;;;;;;;;;;5023796;28;20053;-86
2023/12/29 04:53:36;;;;;;;1.27;1.00;;;;;;;;;;5024617;28;20062;-86
2023/12/29 04:56:05;;;;;;;1.13;1.00;;;;;;;;;;5020436;28;20143;-86
2023/12/29 04:58:34;;;;;;;1.33;0.90;;;;;;;;;;5022577;28;20054;-86
2023/12/29 05:01:03;;;;;;;1.60;1.17;;;;;;;;;;5017584;28;20095;-86
2023/12/29 05:03:32;;;;;;;0.93;0.88;;;;;;;;;;5017243;28;20502;-86
2023/12/29 05:06:00;;;;;;;1.15;1.00;;;;;;;;;;5023955;28;20046;-86
2023/12/29 05:08:29;;;;;;;1.52;1.10;;;;;;;;;;5020038;28;20082;-86
2023/12/29 05:10:57;;;;;;;1.98;1.30;;;;;;;;;;5017858;28;20096;-85
2023/12/29 05:13:26;;;;;;;1.40;1.00;;;;;;;;;;5022545;28;20049;-86
2023/12/29 05:15:54;;;;;;;1.50;1.08;;;;;;;;;;5021056;28;20453;-85
2023/12/29 05:18:24;;;;;;;1.15;1.00;;;;;;;;;;5017004;28;20041;-86
2023/12/29 05:20:52;;;;;;;1.10;1.00;;;;;;;;;;5017921;28;20061;-86
2023/12/29 05:23:21;;;;;;;1.38;1.08;;;;;;;;;;5017784;28;20074;-86
2023/12/29 05:25:49;;;;;;;1.23;1.10;;;;;;;;;;5023621;28;20057;-85
2023/12/29 05:28:17;;;;;;;1.00;0.90;;;;;;;;;;5015781;28;20054;-86
2023/12/29 05:30:46;;;;;;;1.50;1.20;;;;;;;;;;5021431;28;20097;-86
2023/12/29 05:33:15;;;;;;;1.27;1.00;;;;;;;;;;5016515;28;20049;-85
2023/12/29 05:35:44;;;;;;;4.75;1.40;;;;;;;;;;5016690;28;20057;-85
2023/12/29 05:38:13;;;;;;;1.52;0.98;;;;;;;;;;5015349;28;20143;-85
2023/12/29 05:40:41;;;;;;;1.67;1.02;;;;;;;;;;5024204;28;20057;-86
2023/12/29 05:43:10;;;;;;;1.30;1.20;;;;;;;;;;5023439;28;20065;-86
2023/12/29 05:45:38;;;;;;;1.45;1.13;;;;;;;;;;5018627;28;20093;-87
2023/12/29 05:48:07;;;;;;;1.90;1.33;;;;;;;;;;5016536;28;20045;-86
2023/12/29 05:50:37;;;;;;;1.23;1.08;;;;;;;;;;5016847;28;20046;-85
2023/12/29 05:53:06;;;;;;;1.27;1.00;;;;;;;;;;5016369;28;20065;-86
2023/12/29 05:55:35;;;;;;;1.67;1.20;;;;;;;;;;5021252;28;20054;-86
2023/12/29 05:58:04;;;;;;;2.88;1.15;;;;;;;;;;5020770;28;20062;-86
2023/12/29 06:00:33;;;;;;;1.10;1.00;;;;;;;;;;5020095;28;20399;-87
2023/12/29 06:03:01;;;;;;;1.13;1.00;;;;;;;;;;5018104;28;20053;-86
2023/12/29 06:05:29;;;;;;;2.08;1.23;;;;;;;;;;5016006;28;20522;-86
2023/12/29 06:07:58;;;;;;;3.67;1.10;;;;;;;;;;5020147;28;20546;-86
2023/12/29 06:10:28;;;;;;;2.22;1.30;;;;;;;;;;5021935;28;20107;-86
2023/12/29 06:12:58;;;;;;;1.75;1.23;;;;;;;;;;5022831;28;20050;-86
2023/12/29 06:15:36;;;;;;;2.00;1.48;;;;;;;;;;5020074;28;20097;-86
2023/12/29 06:18:04;;;;;;;1.67;1.10;;;;;;;;;;5022152;28;20087;-86
2023/12/29 06:20:34;;;;;;;2.75;1.20;;;;;;;;;;5020190;28;20474;-86
2023/12/29 06:23:12;;;;;;;1.52;1.17;;;;;;;;;;5017201;28;20112;-86
2023/12/29 06:25:42;;;;;;;1.00;0.90;;;;;;;;;;5022801;28;20208;-86
2023/12/29 06:28:14;;;;;;;1.52;1.10;;;;;;;;;;5021405;28;20056;-86
2023/12/29 06:30:42;;;;;;;2.42;1.15;;;;;;;;;;5018801;28;20057;-86
2023/12/29 06:33:11;;;;;;;1.00;0.90;;;;;;;;;;5018493;28;20057;-85
2023/12/29 06:35:39;;;;;;;1.23;1.10;;;;;;;;;;5022660;28;20108;-86
2023/12/29 06:38:08;;;;;;;1.17;0.90;;;;;;;;;;5020329;28;20045;-85
2023/12/29 06:40:36;;;;;;;1.25;1.05;;;;;;;;;;5020161;28;20099;-86
2023/12/29 06:43:06;;;;;;;2.70;1.23;;;;;;;;;;5022292;28;20103;-86
2023/12/29 06:45:35;;;;;;;1.40;0.90;;;;;;;;;;5017483;28;20517;-86
2023/12/29 06:48:03;;;;;;;1.92;1.10;;;;;;;;;;5016037;28;20054;-85
2023/12/29 06:50:32;;;;;;;1.60;1.27;;;;;;;;;;5019486;28;20057;-86
2023/12/29 06:53:01;;;;;;;1.33;1.00;;;;;;;;;;5020389;28;20096;-86
2023/12/29 06:55:29;;;;;;;1.77;1.17;;;;;;;;;;5018790;28;20041;-86
2023/12/29 06:57:58;;;;;;;2.28;1.38;;;;;;;;;;5020648;28;20133;-86
2023/12/29 07:00:28;;;;;;;1.58;1.25;;;;;;;;;;5017744;28;20054;-86
2023/12/29 07:02:57;;;;;;;1.25;1.00;;;;;;;;;;5015366;28;20578;-86
2023/12/29 07:05:25;;;;;;;1.45;1.00;;;;;;;;;;5018662;28;20427;-85
2023/12/29 07:07:54;;;;;;;1.10;1.00;;;;;;;;;;5022793;28;20063;-86
2023/12/29 07:10:22;;;;;;;1.10;1.00;;;;;;;;;;5019565;28;20104;-86
2023/12/29 07:12:51;;;;;;;1.15;1.05;;;;;;;;;;5017504;28;20046;-86
2023/12/29 07:15:20;;;;;;;1.25;1.00;;;;;;;;;;5018189;28;20053;-86
2023/12/29 07:17:50;;;;;;;1.15;1.00;;;;;;;;;;5021874;28;20046;-86
2023/12/29 07:20:18;;;;;;;0.90;0.80;;;;;;;;;;5020473;28;20140;-86
2023/12/29 07:22:47;;;;;;;1.13;0.90;;;;;;;;;;5021974;28;20205;-85
2023/12/29 07:25:15;;;;;;;1.02;1.00;;;;;;;;;;5026256;28;20490;-85
2023/12/29 07:27:44;;;;;;;1.25;0.90;;;;;;;;;;5020653;28;20506;-86
2023/12/29 07:30:13;;;;;;;1.27;1.15;;;;;;;;;;5020640;28;20046;-86
2023/12/29 07:32:41;;;;;;;1.45;1.10;;;;;;;;;;5019788;28;20054;-86
2023/12/29 07:35:15;;;;;;;3.75;1.00;;;;;;;;;;5019591;28;20487;-86
2023/12/29 07:37:43;;;;;;;1.08;0.98;;;;;;;;;;5025247;28;20045;-86
2023/12/29 07:40:12;;;;;;;1.60;0.95;;;;;;;;;;5023343;28;20406;-86
2023/12/29 07:42:41;;;;;;;1.15;0.90;;;;;;;;;;5020835;28;20136;-86
2023/12/29 07:45:10;;;;;;;0.77;0.77;;;;;;;;;;5022977;28;20406;-86
2023/12/29 07:47:39;;;;;;;1.20;0.85;;;;;;;;;;5018849;28;20065;-86
2023/12/29 07:50:08;;;;;;;1.10;0.93;;;;;;;;;;5020744;28;20045;-86
2023/12/29 07:52:38;;;;;;;1.17;0.82;;;;;;;;;;5022126;28;20049;-86
2023/12/29 07:55:06;;;;;;;1.38;1.15;;;;;;;;;;5020857;28;20053;-86
2023/12/29 07:57:35;;;;;;;0.90;0.75;;;;;;;;;;5019945;28;20169;-86
2023/12/29 08:00:06;;;;;;;1.02;0.93;;;;;;;;;;5020477;28;20140;-86
2023/12/29 08:02:35;;;;;;;1.80;0.70;;;;;;;;;;5020973;28;20050;-85
2023/12/29 08:05:03;;;;;;;0.80;0.80;;;;;;;;;;5018422;28;20557;-85
2023/12/29 08:07:32;;;;;;;0.80;0.80;;;;;;;;;;5023200;28;20069;-86
2023/12/29 08:10:04;;;;;;;1.42;0.90;;;;;;;;;;5023564;28;20149;-86
2023/12/29 08:12:33;;;;;;;1.13;0.93;;;;;;;;;;5018390;28;20396;-86
2023/12/29 08:15:02;;;;;;;0.77;0.75;;;;;;;;;;5022446;28;20049;-86
2023/12/29 08:17:31;;;;;;;0.90;0.90;;;;;;;;;;5020529;28;20046;-86
2023/12/29 08:19:59;;;;;;;1.33;0.85;;;;;;;;;;5022351;28;20070;-85
2023/12/29 08:22:29;;;;;;;1.15;0.95;;;;;;;;;;5025030;28;20558;-86
2023/12/29 08:24:57;;;;;;;0.75;0.75;;;;;;;;;;5025447;28;20053;-87
2023/12/29 08:27:27;;;;;;;4.45;1.10;;;;;;;;;;5016930;28;20529;-85
2023/12/29 08:29:56;;;;;;;0.95;0.90;;;;;;;;;;5021948;28;20061;-85
2023/12/29 08:32:24;;;;;;;1.17;1.02;;;;;;;;;;5020486;28;20442;-85
2023/12/29 08:34:53;;;;;;;1.02;0.93;;;;;;;;;;5023230;28;20056;-86
2023/12/29 08:37:21;;;;;;;1.30;0.85;;;;;;;;;;5023270;28;20680;-86
2023/12/29 08:39:50;;;;;;;1.58;0.98;;;;;;;;;;5023802;28;20057;-85
2023/12/29 08:42:18;;;;;;;1.05;0.95;;;;;;;;;;5018015;28;20136;-86
2023/12/29 08:44:48;;;;;;;1.45;0.98;;;;;;;;;;5021279;28;20340;-86
2023/12/29 08:47:17;;;;;;;0.90;0.80;;;;;;;;;;5023966;28;20137;-86
2023/12/29 08:49:45;;;;;;;1.35;1.17;;;;;;;;;;5020080;28;20141;-86
2023/12/29 08:52:14;;;;;;;1.20;1.10;;;;;;;;;;5018413;28;20060;-85
2023/12/29 08:54:42;;;;;;;1.00;0.80;;;;;;;;;;5022302;28;20052;-87
2023/12/29 08:57:11;;;;;;;1.90;0.98;;;;;;;;;;5021778;28;20054;-86
2023/12/29 08:59:39;;;;;;;2.63;1.00;;;;;;;;;;5017779;28;20100;-85
2023/12/29 09:02:09;;;;;;;1.25;0.90;;;;;;;;;;5020906;28;20058;-85
2023/12/29 09:04:38;;;;;;;1.30;1.20;;;;;;;;;;5019885;28;20470;-86
2023/12/29 09:07:06;;;;;;;4.10;1.00;;;;;;;;;;5018987;28;20064;-87
2023/12/29 09:09:35;;;;;;;1.10;1.00;;;;;;;;;;5024026;28;20049;-85
2023/12/29 09:12:03;;;;;;;0.80;0.80;;;;;;;;;;5021927;28;20049;-86
2023/12/29 09:14:34;;;;;;;1.85;1.20;;;;;;;;;;5024733;28;20384;-86
2023/12/29 09:17:03;;;;;;;1.33;0.95;;;;;;;;;;5016469;28;20045;-86
2023/12/29 09:19:32;;;;;;;1.63;1.10;;;;;;;;;;5020468;28;20054;-86
2023/12/29 09:22:07;;;;;;;1.13;1.02;;;;;;;;;;5025308;28;20057;-86
2023/12/29 09:24:36;;;;;;;1.08;0.90;;;;;;;;;;5024174;28;20053;-86
2023/12/29 09:27:05;;;;;;;1.38;1.00;;;;;;;;;;5024989;28;20104;-86
2023/12/29 09:29:34;;;;;;;0.85;0.85;;;;;;;;;;5023691;28;20046;-86
2023/12/29 09:32:02;;;;;;;1.10;0.90;;;;;;;;;;5021569;28;20415;-86
2023/12/29 09:34:30;;;;;;;1.77;0.90;;;;;;;;;;5020944;28;20505;-86
2023/12/29 09:37:01;;;;;;;1.65;0.80;;;;;;;;;;5016687;28;20084;-85
2023/12/29 09:39:29;;;;;;;1.75;0.85;;;;;;;;;;5021418;28;20053;-85
2023/12/29 09:42:00;;;;;;;1.00;0.80;;;;;;;;;;5023999;28;20054;-85
2023/12/29 09:44:29;;;;;;;0.75;0.75;;;;;;;;;;5023832;28;20671;-86
2023/12/29 09:46:59;;;;;;;0.93;0.90;;;;;;;;;;5022665;28;20053;-86
2023/12/29 09:49:28;;;;;;;1.80;0.90;;;;;;;;;;5022192;28;20041;-86
2023/12/29 09:51:58;;;;;;;1.35;0.80;;;;;;;;;;5017643;28;20140;-85
2023/12/29 09:54:28;;;;;;;1.20;0.82;;;;;;;;;;5019801;28;20088;-86
2023/12/29 09:56:56;;;;;;;1.35;0.93;;;;;;;;;;5023591;28;20145;-85
2023/12/29 09:59:25;;;;;;;1.80;0.80;;;;;;;;;;5022681;28;20135;-86
2023/12/29 10:01:54;;;;;;;0.93;0.73;;;;;;;;;;5023915;28;20049;-86
2023/12/29 10:04:23;;;;;;;1.00;0.95;;;;;;;;;;5023667;28;20103;-85
2023/12/29 10:06:52;;;;;;;1.08;0.93;;;;;;;;;;5022714;28;20049;-86
2023/12/29 10:09:21;;;;;;;0.80;0.63;;;;;;;;;;5023754;28;20045;-86
2023/12/29 10:11:52;;;;;;;0.80;0.80;;;;;;;;;;5020465;28;20056;-85
2023/12/29 10:14:24;;;;;;;2.15;0.80;;;;;;;;;;5027419;28;20076;-85
2023/12/29 10:16:55;;;;;;;0.68;0.68;;;;;;;;;;5024176;28;20568;-85
2023/12/29 10:19:27;;;;;;;0.95;0.77;;;;;;;;;;5022416;28;20050;-84
2023/12/29 10:22:02;;;;;;;0.95;0.70;;;;;;;;;;5019219;28;20541;-85
2023/12/29 10:24:31;;;;;;;1.10;0.80;;;;;;;;;;5018110;28;20112;-86
2023/12/29 10:27:01;;;;;;;1.17;0.88;;;;;;;;;;5021284;28;20065;-85
2023/12/29 10:29:29;;;;;;;0.70;0.70;;;;;;;;;;5020611;28;20053;-86
2023/12/29 10:31:58;;;;;;;0.80;0.80;;;;;;;;;;5019935;28;20041;-85
2023/12/29 10:34:29;;;;;;;0.95;0.70;;;;;;;;;;5022290;28;20264;-86
2023/12/29 10:36:59;;;;;;;1.55;0.70;;;;;;;;;;5021365;28;20136;-86
2023/12/29 10:39:28;;;;;;;0.80;0.70;;;;;;;;;;5022416;28;20050;-86
2023/12/29 10:42:06;;;;;;;0.85;0.73;;;;;;;;;;5019885;28;20053;-86
2023/12/29 10:44:35;;;;;;;0.77;0.77;;;;;;;;;;5019956;28;20494;-85
2023/12/29 10:47:10;;;;;;;0.60;0.60;;;;;;;;;;5018714;28;20052;-86
2023/12/29 10:49:38;;;;;;;0.50;0.50;;;;;;;;;;5018888;28;20054;-86
2023/12/29 10:52:14;;;;;;;0.70;0.70;;;;;;;;;;5017568;28;20049;-86
2023/12/29 10:54:43;;;;;;;0.68;0.68;;;;;;;;;;5019467;28;20076;-87
2023/12/29 10:57:14;;;;;;;0.95;0.82;;;;;;;;;;5016348;28;20103;-86
2023/12/29 10:59:43;;;;;;;0.60;0.60;;;;;;;;;;5020501;28;20096;-86
2023/12/29 11:02:15;;;;;;;1.95;0.57;;;;;;;;;;5021569;28;20061;-86
2023/12/29 11:04:43;;;;;;;1.50;0.73;;;;;;;;;;5017507;28;20041;-85
2023/12/29 11:07:13;;;;;;;0.75;0.68;;;;;;;;;;5019854;28;20100;-86
2023/12/29 11:09:42;;;;;;;2.22;0.90;;;;;;;;;;5018702;28;20075;-86
2023/12/29 11:12:13;;;;;;;1.05;0.60;;;;;;;;;;5019217;28;20156;-86
2023/12/29 11:14:46;;;;;;;0.77;0.60;;;;;;;;;;5022586;28;20513;-86
2023/12/29 11:17:16;;;;;;;1.70;0.82;;;;;;;;;;5014703;28;20049;-86
2023/12/29 11:19:46;;;;;;;0.50;0.50;;;;;;;;;;5020729;28;20050;-86
2023/12/29 11:22:16;;;;;;;0.75;0.60;;;;;;;;;;5016771;28;20387;-85
2023/12/29 11:24:47;;;;;;;1.30;0.60;;;;;;;;;;5022277;28;20056;-86
2023/12/29 11:27:17;;;;;;;0.50;0.50;;;;;;;;;;5018490;28;20084;-85
2023/12/29 11:29:47;;;;;;;2.00;0.70;;;;;;;;;;5020663;28;20049;-86
2023/12/29 11:32:19;;;;;;;0.80;0.60;;;;;;;;;;5016594;28;20050;-86
2023/12/29 11:34:50;;;;;;;0.80;0.60;;;;;;;;;;5022101;28;20049;-86
2023/12/29 11:37:23;;;;;;;0.70;0.70;;;;;;;;;;5021851;28;20053;-86
2023/12/29 11:39:54;;;;;;;1.15;0.80;;;;;;;;;;5020732;28;20052;-86
2023/12/29 11:42:30;;;;;;;0.65;0.60;;;;;;;;;;5020965;28;20049;-87
2023/12/29 11:44:59;;;;;;;0.85;0.80;;;;;;;;;;5019995;28;20517;-86
2023/12/29 11:47:37;;;;;;;0.60;0.60;;;;;;;;;;5015139;28;20255;-86
2023/12/29 11:50:06;;;;;;;0.80;0.70;;;;;;;;;;5017428;28;20103;-86
2023/12/29 11:52:34;;;;;;;0.75;0.75;;;;;;;;;;5021795;28;20045;-85
2023/12/29 11:55:09;;;;;;;0.88;0.70;;;;;;;;;;5019813;28;20107;-87
2023/12/29 11:57:38;;;;;;;;;;;;;;;;;;5021555;28;20065;-86
2023/12/29 12:00:09;;;;;;;1.08;0.70;;;;;;;;;;5021975;28;19921;-86
2023/12/29 12:02:37;;;;;;;1.02;0.90;;;;;;;;;;5015571;28;20478;-85
2023/12/29 12:05:07;;;;;;;0.80;0.77;;;;;;;;;;5016425;28;20126;-86
2023/12/29 12:07:54;;;;;;;0.60;0.60;;;;;;;;;;5020919;28;20114;-86
2023/12/29 12:10:33;;;;;;;0.68;0.68;;;;;;;;;;5022304;28;20041;-86
2023/12/29 12:13:02;;;;;;;0.70;0.70;;;;;;;;;;5022085;28;20046;-86
2023/12/29 12:15:35;;;;;;;1.70;0.80;;;;;;;;;;5018101;28;20069;-85
2023/12/29 12:18:07;;;;;;;1.58;0.77;;;;;;;;;;5019158;28;20381;-86
2023/12/29 12:20:36;;;;;;;1.05;0.70;;;;;;;;;;5021231;28;20046;-86
2023/12/29 12:23:06;;;;;;;0.70;0.60;;;;;;;;;;5025332;28;20135;-85
2023/12/29 12:25:37;;;;;;;1.15;0.80;;;;;;;;;;5019028;28;20054;-86
2023/12/29 12:28:07;;;;;;;1.00;0.88;;;;;;;;;;5020261;28;20057;-86
2023/12/29 12:30:37;;;;;;;0.93;0.70;;;;;;;;;;5022065;28;20100;-86
2023/12/29 12:33:06;;;;;;;0.80;0.70;;;;;;;;;;5024699;28;20045;-87
2023/12/29 12:35:35;;;;;;;0.93;0.77;;;;;;;;;;5022342;28;20469;-85
2023/12/29 12:38:10;;;;;;;0.90;0.80;;;;;;;;;;5019796;28;20103;-86
2023/12/29 12:40:39;;;;;;;0.70;0.70;;;;;;;;;;5020589;28;20049;-86
2023/12/29 12:43:08;;;;;;;0.63;0.63;;;;;;;;;;5024550;28;20131;-86
2023/12/29 12:45:43;;;;;;;0.70;0.68;;;;;;;;;;5026012;28;20099;-85
2023/12/29 12:48:15;;;;;;;0.80;0.80;;;;;;;;;;5022300;28;20478;-86
2023/12/29 12:50:45;;;;;;;0.60;0.60;;;;;;;;;;5022020;28;20053;-86
2023/12/29 12:53:20;;;;;;;1.65;0.70;;;;;;;;;;5018189;28;20139;-86
2023/12/29 12:55:50;;;;;;;0.65;0.63;;;;;;;;;;5020109;28;20054;-86
2023/12/29 12:58:20;;;;;;;1.35;0.90;;;;;;;;;;5023945;28;20099;-86
2023/12/29 13:00:50;;;;;;;2.65;0.80;;;;;;;;;;5020844;28;20085;-86
2023/12/29 13:03:23;;;;;;;1.77;0.77;;;;;;;;;;5022189;28;20425;-86
2023/12/29 13:05:52;;;;;;;1.13;0.70;;;;;;;;;;5020679;28;20057;-86
2023/12/29 13:08:21;;;;;;;1.52;0.70;;;;;;;;;;5019679;28;20061;-86
2023/12/29 13:11:02;;;;;;;1.52;0.70;;;;;;;;;;5020658;28;20073;-86
2023/12/29 13:13:37;;;;;;;0.70;0.70;;;;;;;;;;5018790;28;20041;-86
2023/12/29 13:16:08;;;;;;;1.25;0.85;;;;;;;;;;5023733;28;20053;-86
2023/12/29 13:18:36;;;;;;;0.85;0.70;;;;;;;;;;5024101;28;20052;-86
2023/12/29 13:21:05;;;;;;;1.05;0.70;;;;;;;;;;5025868;28;20150;-85
2023/12/29 13:23:34;;;;;;;1.50;0.70;;;;;;;;;;5024801;28;20054;-86
2023/12/29 13:26:06;;;;;;;1.60;0.70;;;;;;;;;;5024471;28;20061;-86
2023/12/29 13:28:35;;;;;;;0.65;0.65;;;;;;;;;;5024159;28;20092;-85
2023/12/29 13:31:09;;;;;;;1.67;0.80;;;;;;;;;;5021473;28;20501;-86
2023/12/29 13:33:44;;;;;;;1.15;0.88;;;;;;;;;;5024616;28;20119;-86
2023/12/29 13:36:20;;;;;;;4.07;0.90;;;;;;;;;;5017031;28;20080;-86
2023/12/29 13:38:53;;;;;;;0.85;0.50;;;;;;;;;;5017206;28;20075;-86
2023/12/29 13:41:23;;;;;;;0.60;0.60;;;;;;;;;;5018972;28;20050;-86
2023/12/29 13:43:51;;;;;;;0.60;0.60;;;;;;;;;;5023982;28;20049;-86
2023/12/29 13:46:21;;;;;;;1.52;0.70;;;;;;;;;;5016916;28;20495;-86
2023/12/29 13:48:51;;;;;;;0.90;0.75;;;;;;;;;;5017160;28;20053;-86
2023/12/29 13:51:24;;;;;;;0.50;0.50;;;;;;;;;;5018438;28;20056;-86
2023/12/29 13:53:59;;;;;;;0.60;0.60;;;;;;;;;;5020498;28;20046;-86
2023/12/29 13:56:28;;;;;;;0.60;0.60;;;;;;;;;;5023079;28;20088;-85
2023/12/29 13:58:56;;;;;;;1.05;0.60;;;;;;;;;;5024206;28;20399;-86
2023/12/29 14:01:26;;;;;;;0.63;0.60;;;;;;;;;;5017971;28;20066;-86
2023/12/29 14:03:56;;;;;;;0.60;0.60;;;;;;;;;;5016767;28;20057;-86
2023/12/29 14:06:29;;;;;;;0.40;0.40;;;;;;;;;;5017783;28;20056;-85
2023/12/29 14:08:57;;;;;;;0.60;0.60;;;;;;;;;;5020636;28;20050;-86
2023/12/29 14:11:26;;;;;;;0.75;0.70;;;;;;;;;;5021211;28;20103;-87
2023/12/29 14:13:55;;;;;;;0.60;0.60;;;;;;;;;;5022210;28;20045;-87
2023/12/29 14:16:24;;;;;;;0.50;0.50;;;;;;;;;;5024148;28;20076;-86
2023/12/29 14:18:58;;;;;;;1.00;0.70;;;;;;;;;;5025099;28;20383;-86
2023/12/29 14:21:29;;;;;;;0.93;0.60;;;;;;;;;;5020208;28;20491;-86
2023/12/29 14:24:09;;;;;;;0.55;0.55;;;;;;;;;;5018009;28;20296;-86
2023/12/29 14:26:38;;;;;;;0.60;0.60;;;;;;;;;;5018078;28;20058;-87
2023/12/29 14:29:08;;;;;;;1.00;0.68;;;;;;;;;;5020754;28;20132;-88
2023/12/29 14:31:38;;;;;;;0.60;0.60;;;;;;;;;;5018494;28;20046;-87
2023/12/29 14:34:09;;;;;;;0.70;0.70;;;;;;;;;;5025822;28;20045;-86
2023/12/29 14:36:39;;;;;;;0.63;0.63;;;;;;;;;;5018607;28;20072;-87
2023/12/29 14:39:09;;;;;;;0.80;0.70;;;;;;;;;;5023118;28;20053;-85
2023/12/29 14:41:38;;;;;;;1.85;0.68;;;;;;;;;;5021715;28;20517;-86
2023/12/29 14:44:07;;;;;;;0.95;0.70;;;;;;;;;;5018606;28;20113;-86
2023/12/29 14:46:37;;;;;;;2.22;0.70;;;;;;;;;;5023820;28;20049;-87
2023/12/29 14:49:07;;;;;;;0.70;0.70;;;;;;;;;;5022993;28;20050;-86
2023/12/29 14:51:37;;;;;;;0.80;0.60;;;;;;;;;;5024014;28;20295;-86
2023/12/29 14:54:06;;;;;;;0.65;0.57;;;;;;;;;;5017719;28;20041;-86
2023/12/29 14:56:35;;;;;;;0.60;0.60;;;;;;;;;;5023552;28;20056;-87